createdAt,value
2019-03-06T00:02:03.608Z,56.80
2019-03-06T00:04:34.928Z,56.90
2019-03-06T00:07:06.010Z,56.90
2019-03-06T00:09:37.451Z,57.50
2019-03-06T00:12:08.541Z,56.90
2019-03-06T00:14:40.211Z,57.00
2019-03-06T00:17:11.174Z,57.00
2019-03-06T00:19:42.254Z,57.90
2019-03-06T00:22:13.576Z,57.10
2019-03-06T00:24:45.018Z,57.90
2019-03-06T00:27:16.140Z,57.90
2019-03-06T00:29:47.179Z,57.90
2019-03-06T00:32:18.382Z,58.00
2019-03-06T00:34:50.181Z,58.20
2019-03-06T00:37:21.745Z,58.20
2019-03-06T00:39:59.785Z,58.20
2019-03-06T00:42:33.388Z,58.20
2019-03-06T00:45:04.708Z,58.20
2019-03-06T00:47:35.910Z,58.20
2019-03-06T00:50:07.111Z,58.20
2019-03-06T00:52:38.552Z,58.20
2019-03-06T00:55:09.394Z,58.00
2019-03-06T00:57:40.716Z,58.20
2019-03-06T01:00:12.166Z,58.00
2019-03-06T01:02:42.876Z,58.00
2019-03-06T01:05:15.879Z,57.90
2019-03-06T01:07:47.319Z,57.70
2019-03-06T01:10:18.760Z,57.70
2019-03-06T01:12:49.841Z,57.70
2019-03-06T01:15:21.042Z,57.70
2019-03-06T01:17:55.612Z,57.50
2019-03-06T01:20:26.686Z,57.40
2019-03-06T01:22:57.766Z,57.50
2019-03-06T01:25:29.089Z,57.40
2019-03-06T01:28:00.289Z,57.40
2019-03-06T01:30:31.011Z,57.40
2019-03-06T01:33:21.052Z,57.30
2019-03-06T01:36:07.734Z,57.30
2019-03-06T01:38:56.456Z,57.10
2019-03-06T01:41:49.380Z,57.20
2019-03-06T01:44:25.017Z,57.00
2019-03-06T01:46:56.226Z,57.30
2019-03-06T01:49:26.940Z,57.30
2019-03-06T01:51:57.900Z,57.10
2019-03-06T01:54:28.864Z,57.00
2019-03-06T01:57:00.189Z,57.00
2019-03-06T01:59:31.384Z,56.90
2019-03-06T02:02:02.468Z,56.90
2019-03-06T02:04:33.428Z,56.60
2019-03-06T02:07:05.590Z,56.60
2019-03-06T02:09:36.566Z,56.60
2019-03-06T02:12:11.114Z,56.60
2019-03-06T02:14:41.712Z,56.80
2019-03-06T02:17:12.674Z,56.70
2019-03-06T02:19:44.598Z,56.30
2019-03-06T02:22:15.676Z,56.40
2019-03-06T02:24:46.158Z,56.50
2019-03-06T02:27:16.998Z,56.40
2019-03-06T02:29:47.960Z,56.30
2019-03-06T02:32:19.288Z,56.40
2019-03-06T02:34:50.251Z,56.40
2019-03-06T02:37:21.328Z,56.70
2019-03-06T02:39:53.010Z,56.80
2019-03-06T02:42:23.967Z,56.70
2019-03-06T02:44:57.330Z,56.70
2019-03-06T02:47:29.255Z,56.60
2019-03-06T02:50:00.452Z,56.60
2019-03-06T02:52:32.145Z,56.60
2019-03-06T02:55:03.452Z,56.60
2019-03-06T02:57:34.175Z,56.50
2019-03-06T03:00:27.821Z,56.60
2019-03-06T03:03:08.140Z,56.70
2019-03-06T03:05:56.501Z,56.70
2019-03-06T03:08:27.821Z,56.80
2019-03-06T03:10:58.546Z,56.90
2019-03-06T03:13:29.742Z,57.00
2019-03-06T03:16:02.154Z,56.90
2019-03-06T03:18:33.946Z,56.90
2019-03-06T03:21:04.668Z,56.70
2019-03-06T03:23:35.638Z,56.50
2019-03-06T03:26:06.470Z,56.40
2019-03-06T03:28:37.599Z,56.20
2019-03-06T03:31:08.993Z,56.30
2019-03-06T03:33:39.844Z,57.00
2019-03-06T03:36:11.035Z,56.60
2019-03-06T03:38:41.876Z,56.30
2019-03-06T03:41:12.717Z,56.10
2019-03-06T03:43:43.799Z,56.10
2019-03-06T03:46:15.241Z,56.00
2019-03-06T03:48:46.202Z,56.00
2019-03-06T03:51:17.167Z,55.80
2019-03-06T03:53:50.282Z,55.80
2019-03-06T03:56:21.725Z,55.80
2019-03-06T03:58:52.687Z,55.80
2019-03-06T04:01:23.887Z,55.60
2019-03-06T04:03:55.332Z,55.70
2019-03-06T04:06:26.289Z,55.70
2019-03-06T04:08:57.488Z,55.70
2019-03-06T04:11:28.334Z,55.70
2019-03-06T04:13:59.654Z,55.80
2019-03-06T04:16:30.853Z,55.80
2019-03-06T04:19:01.580Z,55.60
2019-03-06T04:21:32.537Z,55.70
2019-03-06T04:24:03.383Z,55.60
2019-03-06T04:26:34.702Z,55.60
2019-03-06T04:29:05.901Z,55.60
2019-03-06T04:31:37.341Z,55.70
2019-03-06T04:34:08.662Z,55.60
2019-03-06T04:36:41.424Z,55.60
2019-03-06T04:39:12.631Z,55.70
2019-03-06T04:41:43.348Z,55.50
2019-03-06T04:44:14.786Z,55.50
2019-03-06T04:46:45.751Z,55.30
2019-03-06T04:49:17.069Z,55.40
2019-03-06T04:51:47.911Z,55.40
2019-03-06T04:54:18.993Z,55.40
2019-03-06T04:56:50.434Z,55.50
2019-03-06T04:59:21.635Z,55.50
2019-03-06T05:01:52.717Z,55.50
2019-03-06T05:04:24.403Z,55.50
2019-03-06T05:06:55.721Z,55.40
2019-03-06T05:09:27.281Z,55.60
2019-03-06T05:11:58.658Z,55.50
2019-03-06T05:14:29.324Z,55.40
2019-03-06T05:17:28.245Z,55.50
2019-03-06T05:19:59.737Z,55.50
2019-03-06T05:22:31.247Z,55.50
2019-03-06T05:25:02.087Z,55.60
2019-03-06T05:27:34.129Z,55.60
2019-03-06T05:30:05.689Z,55.80
2019-03-06T05:32:37.851Z,55.80
2019-03-06T05:35:25.131Z,55.60
2019-03-06T05:38:05.339Z,55.50
2019-03-06T05:40:37.137Z,55.70
2019-03-06T05:43:08.579Z,55.80
2019-03-06T05:45:40.018Z,55.80
2019-03-06T05:48:10.989Z,55.90
2019-03-06T05:50:42.305Z,55.70
2019-03-06T05:53:13.381Z,55.70
2019-03-06T05:55:44.393Z,55.60
2019-03-06T05:58:15.428Z,55.50
2019-03-06T06:00:46.385Z,55.70
2019-03-06T06:03:17.468Z,55.70
2019-03-06T06:05:48.787Z,55.70
2019-03-06T06:08:20.110Z,55.80
2019-03-06T06:10:52.511Z,56.50
2019-03-06T06:13:23.591Z,55.90
2019-03-06T06:15:54.435Z,55.70
2019-03-06T06:18:25.875Z,55.70
2019-03-06T06:21:13.995Z,55.70
2019-03-06T06:23:55.037Z,55.80
2019-03-06T06:26:25.879Z,55.90
2019-03-06T06:28:56.839Z,55.80
2019-03-06T06:31:27.441Z,55.80
2019-03-06T06:33:59.481Z,55.90
2019-03-06T06:36:30.564Z,55.90
2019-03-06T06:39:01.525Z,56.00
2019-03-06T06:41:34.169Z,55.90
2019-03-06T06:44:05.367Z,55.90
2019-03-06T06:46:36.688Z,55.90
2019-03-06T06:49:08.372Z,56.00
2019-03-06T06:52:18.813Z,56.00
2019-03-06T06:55:13.297Z,55.90
2019-03-06T06:58:15.814Z,56.00
2019-03-06T07:01:45.941Z,56.60
2019-03-06T07:07:44.861Z,56.50
2019-03-06T07:10:33.821Z,56.60
2019-03-06T07:13:30.223Z,56.50
2019-03-06T07:16:20.145Z,56.50
2019-03-06T07:19:22.065Z,56.60
2019-03-06T07:22:11.866Z,56.60
2019-03-06T07:25:00.947Z,56.50
2019-03-06T07:27:42.589Z,56.20
2019-03-06T07:30:32.439Z,56.10
2019-03-06T07:33:19.084Z,56.30
2019-03-06T07:36:19.676Z,56.80
2019-03-06T07:38:55.553Z,57.20
2019-03-06T07:41:44.155Z,56.60
2019-03-06T07:44:33.000Z,56.60
2019-03-06T07:47:28.808Z,56.50
2019-03-06T07:50:14.182Z,56.40
2019-03-06T07:53:19.201Z,56.30
2019-03-06T07:55:59.287Z,56.10
2019-03-06T07:58:51.501Z,55.80
2019-03-06T08:01:23.647Z,55.60
2019-03-06T08:04:07.209Z,55.50
2019-03-06T08:06:39.367Z,55.30
2019-03-06T08:09:12.378Z,55.40
2019-03-06T08:11:58.815Z,55.90
2019-03-06T08:15:00.872Z,55.80
2019-03-06T08:17:42.144Z,55.20
2019-03-06T08:20:29.054Z,54.90
2019-03-06T08:23:28.457Z,55.40
2019-03-06T08:25:59.421Z,55.00
2019-03-06T08:28:30.862Z,55.30
2019-03-06T08:31:21.021Z,55.30
2019-03-06T08:33:51.981Z,55.90
2019-03-06T08:36:23.307Z,56.00
2019-03-06T08:38:54.383Z,55.70
2019-03-06T08:41:26.798Z,54.90
2019-03-06T08:43:57.990Z,53.60
2019-03-06T08:50:11.910Z,53.10
2019-03-06T08:52:50.792Z,52.60
2019-03-06T08:55:46.834Z,53.40
2019-03-06T08:58:30.757Z,53.20
2019-03-06T09:02:00.883Z,53.70
2019-03-06T09:04:52.717Z,54.30
2019-03-06T09:07:46.119Z,54.70
2019-03-06T09:10:40.002Z,54.70
2019-03-06T09:13:26.324Z,54.80
2019-03-06T09:16:11.226Z,55.20
2019-03-06T09:19:03.769Z,54.30
2019-03-06T09:21:46.606Z,54.30
2019-03-06T09:24:30.290Z,53.60
2019-03-06T09:27:11.694Z,53.70
2019-03-06T09:30:00.469Z,52.50
2019-03-06T09:32:56.693Z,53.60
2019-03-06T09:35:37.135Z,53.50
2019-03-06T09:38:25.618Z,53.80
2019-03-06T09:41:15.656Z,54.10
2019-03-06T09:44:05.938Z,54.10
2019-03-06T09:46:51.540Z,54.60
2019-03-06T09:49:47.583Z,52.40
2019-03-06T09:52:40.622Z,50.90
2019-03-06T09:55:42.664Z,50.00
2019-03-06T09:58:25.986Z,49.30
2019-03-06T10:01:18.904Z,49.80
2019-03-06T10:04:00.789Z,50.00
2019-03-06T10:06:52.040Z,49.50
2019-03-06T10:09:41.230Z,51.40
2019-03-06T10:12:37.392Z,51.90
2019-03-06T10:15:21.554Z,51.20
2019-03-06T10:18:05.474Z,51.10
2019-03-06T10:20:36.680Z,51.60
2019-03-06T10:23:08.956Z,51.50
2019-03-06T10:25:39.806Z,50.60
2019-03-06T10:28:10.882Z,50.50
2019-03-06T10:30:41.966Z,50.40
2019-03-06T10:33:12.939Z,51.50
2019-03-06T10:35:44.842Z,51.00
2019-03-06T10:38:16.833Z,50.80
2019-03-06T10:40:48.326Z,51.50
2019-03-06T10:43:19.289Z,49.20
2019-03-06T10:45:50.368Z,49.80
2019-03-06T10:48:20.851Z,50.00
2019-03-06T10:50:51.987Z,50.00
2019-03-06T10:53:24.572Z,50.40
2019-03-06T10:55:56.019Z,49.70
2019-03-06T10:58:26.974Z,48.50
2019-03-06T11:00:58.057Z,48.50
2019-03-06T11:03:47.856Z,48.50
2019-03-06T11:06:18.818Z,47.60
2019-03-06T11:08:50.020Z,47.80
2019-03-06T11:11:21.463Z,47.90
2019-03-06T11:13:53.751Z,47.80
2019-03-06T11:16:25.066Z,46.20
2019-03-06T11:18:56.947Z,47.30
2019-03-06T11:21:29.026Z,48.30
2019-03-06T11:24:00.471Z,47.70
2019-03-06T11:26:33.356Z,48.30
2019-03-06T11:29:06.230Z,48.80
2019-03-06T11:31:37.555Z,48.30
2019-03-06T11:34:09.112Z,48.80
2019-03-06T11:36:40.078Z,48.90
2019-03-06T11:39:12.714Z,49.00
2019-03-06T11:41:44.278Z,50.10
2019-03-06T11:44:15.596Z,49.90
2019-03-06T11:46:47.281Z,49.60
2019-03-06T11:49:18.123Z,48.50
2019-03-06T11:51:49.321Z,47.60
2019-03-06T11:54:20.162Z,47.00
2019-03-06T11:56:51.126Z,47.10
2019-03-06T11:59:22.324Z,47.20
2019-03-06T12:01:53.287Z,47.80
2019-03-06T12:04:25.210Z,47.90
2019-03-06T12:06:56.530Z,47.90
2019-03-06T12:09:32.412Z,47.20
2019-03-06T12:12:05.172Z,47.40
2019-03-06T12:14:36.252Z,47.90
2019-03-06T12:17:07.094Z,47.50
2019-03-06T12:19:38.536Z,48.00
2019-03-06T12:22:09.497Z,48.30
2019-03-06T12:24:40.698Z,48.60
2019-03-06T12:27:11.897Z,49.10
2019-03-06T12:29:43.101Z,49.50
2019-03-06T12:32:14.182Z,48.80
2019-03-06T12:34:45.263Z,49.20
2019-03-06T12:37:16.346Z,49.50
2019-03-06T12:39:47.546Z,50.20
2019-03-06T12:42:18.628Z,49.10
2019-03-06T12:44:49.828Z,48.90
2019-03-06T12:47:21.028Z,49.10
2019-03-06T12:49:52.112Z,49.60
2019-03-06T12:52:23.191Z,49.70
2019-03-06T12:54:54.273Z,50.00
2019-03-06T12:57:25.233Z,49.90
2019-03-06T12:59:56.317Z,50.00
2019-03-06T13:02:27.638Z,50.20
2019-03-06T13:04:58.597Z,50.10
2019-03-06T13:07:29.681Z,50.40
2019-03-06T13:10:01.123Z,50.60
2019-03-06T13:12:33.162Z,50.30
2019-03-06T13:15:04.849Z,50.30
2019-03-06T13:17:36.359Z,50.10
2019-03-06T13:22:45.410Z,50.20
2019-03-06T13:25:19.969Z,50.50
2019-03-06T13:27:54.821Z,50.80
2019-03-06T13:30:24.771Z,50.70
2019-03-06T13:33:13.679Z,50.10
2019-03-06T13:35:44.459Z,50.00
2019-03-06T13:38:15.993Z,49.80
2019-03-06T13:40:47.579Z,50.10
2019-03-06T13:43:18.536Z,49.90
2019-03-06T13:45:49.745Z,49.50
2019-03-06T13:48:20.821Z,49.90
2019-03-06T13:50:51.663Z,49.80
2019-03-06T13:53:22.983Z,49.30
2019-03-06T13:55:54.428Z,49.70
2019-03-06T13:58:25.267Z,49.00
2019-03-06T14:00:56.225Z,49.60
2019-03-06T14:03:27.310Z,48.60
2019-03-06T14:06:01.389Z,48.70
2019-03-06T14:08:33.071Z,48.90
2019-03-06T14:11:04.753Z,48.20
2019-03-06T14:13:35.593Z,48.20
2019-03-06T14:16:07.154Z,48.10
2019-03-06T14:18:39.317Z,48.50
2019-03-06T14:21:11.120Z,48.00
2019-03-06T14:23:42.078Z,48.10
2019-03-06T14:26:13.519Z,49.10
2019-03-06T14:28:45.199Z,49.90
2019-03-06T14:31:18.444Z,50.00
2019-03-06T14:33:50.246Z,50.20
2019-03-06T14:36:21.444Z,50.00
2019-03-06T14:38:52.765Z,49.90
2019-03-06T14:41:23.728Z,50.60
2019-03-06T14:43:54.809Z,50.70
2019-03-06T14:46:27.570Z,50.80
2019-03-06T14:48:58.649Z,50.90
2019-03-06T14:51:29.971Z,50.90
2019-03-06T14:54:02.262Z,50.80
2019-03-06T14:56:32.857Z,50.80
2019-03-06T14:59:05.497Z,50.00
2019-03-06T15:01:36.339Z,50.00
2019-03-06T15:04:07.777Z,49.20
2019-03-06T15:06:38.499Z,48.40
2019-03-06T15:09:22.661Z,47.90
2019-03-06T15:11:53.743Z,48.00
2019-03-06T15:14:25.078Z,48.40
2019-03-06T15:16:55.903Z,48.80
2019-03-06T15:19:28.314Z,48.60
2019-03-06T15:21:59.989Z,47.90
2019-03-06T15:24:41.025Z,47.30
2019-03-06T15:27:05.271Z,47.20
2019-03-06T15:29:36.233Z,46.90
2019-03-06T15:32:07.437Z,46.90
2019-03-06T15:34:38.275Z,46.90
2019-03-06T15:37:09.596Z,46.90
2019-03-06T15:39:45.674Z,46.70
2019-03-06T15:42:17.518Z,46.70
2019-03-06T15:44:48.361Z,46.90
2019-03-06T15:47:19.440Z,47.00
2019-03-06T15:49:50.284Z,47.20
2019-03-06T15:52:21.243Z,47.60
2019-03-06T15:54:52.799Z,47.60
2019-03-06T15:57:23.772Z,47.80
2019-03-06T15:59:55.327Z,47.80
2019-03-06T16:02:27.610Z,47.80
2019-03-06T16:04:59.050Z,48.10
2019-03-06T16:07:30.372Z,48.40
2019-03-06T16:10:02.295Z,48.30
2019-03-06T16:12:34.692Z,48.30
2019-03-06T16:15:06.737Z,48.30
2019-03-06T16:17:38.176Z,48.60
2019-03-06T16:20:16.099Z,48.70
2019-03-06T16:22:47.661Z,48.80
2019-03-06T16:25:19.219Z,48.80
2019-03-06T16:27:50.903Z,48.70
2019-03-06T16:30:22.465Z,49.60
2019-03-06T16:32:53.549Z,49.20
2019-03-06T16:35:25.102Z,49.20
2019-03-06T16:37:56.545Z,49.00
2019-03-06T16:40:30.397Z,49.50
2019-03-06T16:43:02.553Z,49.30
2019-03-06T16:45:33.510Z,49.40
2019-03-06T16:48:04.712Z,49.50
2019-03-06T16:50:35.913Z,50.40
2019-03-06T16:53:07.235Z,50.70
2019-03-06T16:55:39.936Z,50.50
2019-03-06T16:58:10.964Z,50.00
2019-03-06T17:00:42.042Z,49.80
2019-03-06T17:03:13.001Z,50.30
2019-03-06T17:05:44.445Z,49.70
2019-03-06T17:08:15.520Z,49.80
2019-03-06T17:10:47.324Z,49.70
2019-03-06T17:13:18.403Z,50.00
2019-03-06T17:15:49.725Z,50.30
2019-03-06T17:18:20.928Z,50.40
2019-03-06T17:20:51.895Z,50.20
2019-03-06T17:23:23.209Z,50.60
2019-03-06T17:25:55.011Z,50.80
2019-03-06T17:28:26.099Z,50.50
2019-03-06T17:30:57.533Z,50.50
2019-03-06T17:33:28.973Z,50.50
2019-03-06T17:36:00.775Z,50.50
2019-03-06T17:38:32.215Z,50.50
2019-03-06T17:41:03.062Z,50.30
2019-03-06T17:43:34.861Z,50.50
2019-03-06T17:46:06.420Z,50.70
2019-03-06T17:48:37.743Z,50.70
2019-03-06T17:51:09.065Z,51.10
2019-03-06T17:53:40.505Z,50.40
2019-03-06T17:56:11.831Z,50.30
2019-03-06T17:58:43.027Z,50.20
2019-03-06T18:01:18.075Z,50.40
2019-03-06T18:03:53.949Z,50.30
2019-03-06T18:06:24.911Z,50.20
2019-03-06T18:08:55.752Z,50.40
2019-03-06T18:11:27.195Z,50.60
2019-03-06T18:13:58.275Z,50.40
2019-03-06T18:16:31.035Z,50.30
2019-03-06T18:19:02.358Z,50.00
2019-03-06T18:21:33.923Z,49.90
2019-03-06T18:24:05.119Z,49.70
2019-03-06T18:26:36.683Z,49.80
2019-03-06T18:29:08.843Z,49.80
2019-03-06T18:31:40.523Z,49.70
2019-03-06T18:34:11.245Z,49.60
2019-03-06T18:36:42.927Z,49.70
2019-03-06T18:39:21.688Z,49.60
2019-03-06T18:41:52.775Z,49.60
2019-03-06T18:44:23.490Z,49.60
2019-03-06T18:46:54.812Z,49.60
2019-03-06T18:49:25.771Z,49.70
2019-03-06T18:51:56.617Z,49.90
2019-03-06T18:54:27.332Z,49.70
2019-03-06T18:56:58.417Z,49.70
2019-03-06T18:59:30.818Z,49.80
2019-03-06T19:02:02.379Z,49.60
2019-03-06T19:04:33.341Z,49.50
2019-03-06T19:07:05.620Z,49.40
2019-03-06T19:09:36.943Z,49.40
2019-03-06T19:12:09.584Z,49.60
2019-03-06T19:14:42.457Z,49.90
2019-03-06T19:17:13.426Z,49.90
2019-03-06T19:19:44.387Z,49.90
2019-03-06T19:22:15.469Z,49.80
2019-03-06T19:24:46.191Z,49.70
2019-03-06T19:27:17.513Z,49.90
2019-03-06T19:29:48.355Z,49.40
2019-03-06T19:32:20.158Z,49.50
2019-03-06T19:34:51.596Z,49.00
2019-03-06T19:37:22.918Z,48.70
2019-03-06T19:39:54.363Z,48.90
2019-03-06T19:42:25.436Z,48.80
2019-03-06T19:44:56.399Z,48.90
2019-03-06T19:47:28.083Z,48.60
2019-03-06T19:49:59.161Z,48.10
2019-03-06T19:52:30.124Z,47.40
2019-03-06T19:55:01.085Z,47.60
2019-03-06T19:57:51.726Z,47.70
2019-03-06T20:00:23.767Z,47.50
2019-03-06T20:02:54.970Z,47.30
2019-03-06T20:05:27.251Z,47.30
2019-03-06T20:07:58.933Z,47.00
2019-03-06T20:10:30.253Z,47.20
2019-03-06T20:13:01.701Z,47.20
2019-03-06T20:15:34.461Z,47.20
2019-03-06T20:18:06.015Z,46.70
2019-03-06T20:20:37.627Z,46.30
2019-03-06T20:23:09.624Z,46.50
2019-03-06T20:25:43.820Z,46.60
2019-03-06T20:28:15.883Z,46.20
2019-03-06T20:30:46.823Z,46.20
2019-03-06T20:33:18.870Z,46.20
2019-03-06T20:35:51.867Z,45.70
2019-03-06T20:38:24.869Z,45.40
2019-03-06T20:40:55.956Z,45.50
2019-03-06T20:43:27.271Z,45.70
2019-03-06T20:45:59.796Z,45.30
2019-03-06T20:48:31.114Z,45.00
2019-03-06T20:51:02.553Z,45.10
2019-03-06T20:53:33.640Z,45.00
2019-03-06T20:56:05.077Z,45.10
2019-03-06T20:58:35.922Z,45.20
2019-03-06T21:01:07.357Z,45.40
2019-03-06T21:03:39.041Z,45.40
2019-03-06T21:06:09.879Z,45.30
2019-03-06T21:08:42.043Z,44.90
2019-03-06T21:11:13.365Z,45.00
2019-03-06T21:13:44.688Z,45.40
2019-03-06T21:16:15.533Z,45.50
2019-03-06T21:18:46.607Z,45.60
2019-03-06T21:21:17.928Z,45.50
2019-03-06T21:23:49.129Z,45.00
2019-03-06T21:26:20.091Z,45.10
2019-03-06T21:28:51.652Z,45.20
2019-03-06T21:31:22.858Z,45.20
2019-03-06T21:33:54.295Z,44.90
2019-03-06T21:36:26.095Z,44.50
2019-03-06T21:38:57.417Z,44.00
2019-03-06T21:41:28.259Z,44.20
2019-03-06T21:43:59.105Z,44.10
2019-03-06T21:46:30.181Z,44.50
2019-03-06T21:49:16.862Z,45.00
2019-03-06T21:51:50.708Z,45.00
2019-03-06T21:54:22.266Z,45.00
2019-03-06T21:56:53.466Z,44.10
2019-03-06T21:59:25.882Z,42.30
2019-03-06T22:01:57.913Z,41.50
2019-03-06T22:04:29.955Z,41.10
2019-03-06T22:07:01.631Z,40.90
2019-03-06T22:09:36.086Z,39.50
2019-03-06T22:12:07.034Z,40.40
2019-03-06T22:14:38.116Z,39.50
2019-03-06T22:17:13.516Z,39.30
2019-03-06T22:19:56.484Z,37.90
2019-03-06T22:22:35.514Z,38.60
2019-03-06T22:25:14.485Z,38.30
2019-03-06T22:27:48.922Z,37.90
2019-03-06T22:30:23.852Z,39.10
2019-03-06T22:32:54.803Z,39.40
2019-03-06T22:35:26.965Z,38.50
2019-03-06T22:37:58.288Z,38.10
2019-03-06T22:40:29.247Z,38.80
2019-03-06T22:43:00.452Z,38.70
2019-03-06T22:45:31.781Z,38.80
2019-03-06T22:48:03.580Z,38.40
2019-03-06T22:50:35.493Z,38.00
2019-03-06T22:53:07.413Z,38.30
2019-03-06T22:55:39.579Z,38.40
2019-03-06T22:58:12.817Z,38.50
2019-03-06T23:00:50.497Z,38.70
2019-03-06T23:03:23.021Z,39.20
2019-03-06T23:05:53.982Z,39.50
2019-03-06T23:08:25.542Z,39.10
2019-03-06T23:10:57.223Z,39.00
2019-03-06T23:13:28.788Z,39.00
2019-03-06T23:15:59.745Z,39.20
2019-03-06T23:18:30.590Z,39.40
2019-03-06T23:21:01.792Z,39.90
2019-03-06T23:23:32.870Z,39.40
2019-03-06T23:26:03.836Z,38.80
2019-03-06T23:28:34.794Z,38.80
2019-03-06T23:31:05.993Z,38.90
2019-03-06T23:33:37.314Z,39.30
2019-03-06T23:36:08.644Z,39.50
2019-03-06T23:38:39.960Z,38.70
2019-03-06T23:41:11.159Z,39.50
2019-03-06T23:43:42.000Z,39.00
2019-03-06T23:46:13.680Z,39.20
2019-03-06T23:48:45.123Z,39.30
2019-03-06T23:51:30.125Z,39.30
2019-03-06T23:54:01.928Z,39.40
2019-03-06T23:56:32.647Z,39.90
2019-03-06T23:59:03.974Z,39.40
